createdAt,value
2017-10-29T00:02:26.105Z,98469.34
2017-10-29T00:04:52.553Z,98473.92
2017-10-29T00:07:18.974Z,98465.57
2017-10-29T00:09:46.237Z,98463.92
2017-10-29T00:12:12.600Z,98456.19
2017-10-29T00:14:39.016Z,98451.11
2017-10-29T00:17:05.431Z,98452.35
2017-10-29T00:19:31.880Z,98440.81
2017-10-29T00:21:58.308Z,98445.92
2017-10-29T00:24:24.743Z,98446.28
2017-10-29T00:26:51.886Z,98417.88
2017-10-29T00:29:18.320Z,98434.78
2017-10-29T00:31:44.754Z,98432.73
2017-10-29T00:34:11.191Z,98427.53
2017-10-29T00:36:37.634Z,98429.25
2017-10-29T00:39:04.079Z,98421.27
2017-10-29T00:41:30.606Z,98423.95
2017-10-29T00:43:57.748Z,98414.67
2017-10-29T00:46:24.116Z,98423.11
2017-10-29T00:48:50.626Z,98425.80
2017-10-29T00:51:17.020Z,98419.42
2017-10-29T00:53:43.496Z,98422.36
2017-10-29T00:56:09.820Z,98422.79
2017-10-29T00:58:36.254Z,98418.31
2017-10-29T01:01:03.304Z,98421.59
2017-10-29T01:03:29.738Z,98430.24
2017-10-29T01:05:56.180Z,98427.80
2017-10-29T01:08:22.612Z,98428.10
2017-10-29T01:10:49.051Z,98424.66
2017-10-29T01:13:15.410Z,98426.78
2017-10-29T01:15:41.825Z,98426.67
2017-10-29T01:18:08.903Z,98414.96
2017-10-29T01:20:35.295Z,98413.27
2017-10-29T01:23:01.729Z,98413.63
2017-10-29T01:25:28.095Z,98408.66
2017-10-29T01:27:54.495Z,98400.09
2017-10-29T01:30:20.930Z,98403.38
2017-10-29T01:32:47.373Z,98399.89
2017-10-29T01:35:14.617Z,98401.10
2017-10-29T01:37:40.987Z,98404.30
2017-10-29T01:40:07.327Z,98404.05
2017-10-29T01:42:33.719Z,98403.73
2017-10-29T01:45:00.264Z,98398.09
2017-10-29T01:47:26.690Z,98408.41
2017-10-29T01:49:53.124Z,98408.80
2017-10-29T01:52:20.210Z,98411.86
2017-10-29T01:54:46.608Z,98401.03
2017-10-29T01:57:12.980Z,98405.98
2017-10-29T01:59:39.486Z,98405.83
2017-10-29T02:02:05.810Z,98409.55
2017-10-29T02:04:32.243Z,98398.23
2017-10-29T02:06:58.556Z,98402.95
2017-10-29T02:09:25.728Z,98406.80
2017-10-29T02:11:52.162Z,98413.41
2017-10-29T02:14:18.600Z,98399.44
2017-10-29T02:16:44.962Z,98407.05
2017-10-29T02:19:11.366Z,98403.55
2017-10-29T02:21:37.803Z,98400.60
2017-10-29T02:24:04.233Z,98399.84
2017-10-29T02:26:31.490Z,98395.70
2017-10-29T02:28:57.823Z,98392.80
2017-10-29T02:31:24.257Z,98384.48
2017-10-29T02:33:50.692Z,98387.64
2017-10-29T02:36:17.062Z,98381.73
2017-10-29T02:38:43.570Z,98384.46
2017-10-29T02:41:09.891Z,98385.34
2017-10-29T02:43:37.256Z,98380.48
2017-10-29T02:46:03.690Z,98383.55
2017-10-29T02:48:30.126Z,98389.84
2017-10-29T02:50:56.552Z,98377.26
2017-10-29T02:53:22.884Z,98374.70
2017-10-29T02:55:49.321Z,98375.96
2017-10-29T02:58:15.756Z,98371.69
2017-10-29T03:00:42.913Z,98380.03
2017-10-29T03:03:09.347Z,98349.85
2017-10-29T03:05:35.783Z,98383.30
2017-10-29T03:08:02.209Z,98379.71
2017-10-29T03:10:28.643Z,98374.23
2017-10-29T03:12:55.043Z,98367.94
2017-10-29T03:15:21.514Z,98366.25
2017-10-29T03:17:48.678Z,98367.69
2017-10-29T03:20:15.109Z,98364.78
2017-10-29T03:22:41.597Z,98362.36
2017-10-29T03:25:08.040Z,98356.09
2017-10-29T03:27:34.480Z,98366.30
2017-10-29T03:30:00.926Z,98358.67
2017-10-29T03:32:27.375Z,98346.39
2017-10-29T03:34:54.545Z,98353.55
2017-10-29T03:37:20.969Z,98346.75
2017-10-29T03:39:47.405Z,98349.92
2017-10-29T03:42:13.831Z,98331.27
2017-10-29T03:44:40.368Z,98347.17
2017-10-29T03:47:06.807Z,98330.03
2017-10-29T03:49:33.171Z,98336.37
2017-10-29T03:52:00.355Z,98339.87
2017-10-29T03:54:26.831Z,98325.36
2017-10-29T03:56:53.194Z,98329.27
2017-10-29T03:59:19.704Z,98325.76
2017-10-29T04:01:46.129Z,98323.27
2017-10-29T04:04:12.562Z,98324.19
2017-10-29T04:06:39.005Z,98322.66
2017-10-29T04:09:06.158Z,98323.66
2017-10-29T04:11:32.587Z,98321.53
2017-10-29T04:13:59.018Z,98330.80
2017-10-29T04:16:25.453Z,98323.09
2017-10-29T04:18:51.785Z,98330.33
2017-10-29T04:21:18.334Z,98323.77
2017-10-29T04:23:44.757Z,98315.50
2017-10-29T04:26:12.018Z,98314.16
2017-10-29T04:28:38.551Z,98307.91
2017-10-29T04:31:04.984Z,98312.91
2017-10-29T04:33:31.318Z,98308.37
2017-10-29T04:35:57.682Z,98301.87
2017-10-29T04:38:24.014Z,98289.53
2017-10-29T04:40:50.414Z,98287.39
2017-10-29T04:43:17.772Z,98285.22
2017-10-29T04:45:44.206Z,98281.61
2017-10-29T04:48:10.640Z,98272.41
2017-10-29T04:50:37.097Z,98271.36
2017-10-29T04:53:03.516Z,98269.75
2017-10-29T04:55:29.842Z,98270.13
2017-10-29T04:57:56.297Z,98268.39
2017-10-29T05:00:23.436Z,98258.92
2017-10-29T05:02:49.836Z,98268.27
2017-10-29T05:05:16.299Z,98259.53
2017-10-29T05:07:42.741Z,98251.64
2017-10-29T05:10:09.104Z,98260.07
2017-10-29T05:12:35.498Z,98256.97
2017-10-29T05:15:01.942Z,98266.42
2017-10-29T05:17:29.189Z,98270.12
2017-10-29T05:19:55.622Z,98260.08
2017-10-29T05:22:22.063Z,98262.47
2017-10-29T05:24:48.602Z,98264.27
2017-10-29T05:27:15.038Z,98270.77
2017-10-29T05:29:41.473Z,98267.84
2017-10-29T05:32:07.795Z,98271.11
2017-10-29T05:34:35.161Z,98279.20
2017-10-29T05:37:01.588Z,98281.39
2017-10-29T05:39:28.022Z,98289.00
2017-10-29T05:41:54.567Z,98284.14
2017-10-29T05:44:21.002Z,98279.72
2017-10-29T05:46:47.443Z,98276.89
2017-10-29T05:49:13.813Z,98270.63
2017-10-29T05:51:41.141Z,98260.80
2017-10-29T05:54:07.560Z,98260.42
2017-10-29T05:56:33.987Z,98264.62
2017-10-29T05:59:00.421Z,98264.02
2017-10-29T06:01:26.865Z,98233.00
2017-10-29T06:03:53.297Z,98253.16
2017-10-29T06:06:19.707Z,98258.39
2017-10-29T06:08:46.965Z,98260.78
2017-10-29T06:11:13.414Z,98252.12
2017-10-29T06:13:39.849Z,98252.89
2017-10-29T06:16:06.218Z,98257.17
2017-10-29T06:18:32.578Z,98248.42
2017-10-29T06:20:59.051Z,98244.70
2017-10-29T06:23:25.485Z,98244.39
2017-10-29T06:25:52.738Z,98252.81
2017-10-29T06:28:19.174Z,98256.34
2017-10-29T06:30:45.608Z,98252.71
2017-10-29T06:33:12.064Z,98244.77
2017-10-29T06:35:38.580Z,98237.28
2017-10-29T06:38:05.015Z,98206.62
2017-10-29T06:40:31.449Z,98234.97
2017-10-29T06:42:58.609Z,98239.53
2017-10-29T06:45:25.035Z,98235.26
2017-10-29T06:47:51.479Z,98228.28
2017-10-29T06:50:17.913Z,98223.93
2017-10-29T06:52:44.348Z,98225.76
2017-10-29T06:55:10.783Z,98219.05
2017-10-29T06:57:37.179Z,98205.69
2017-10-29T07:00:04.372Z,98193.99
2017-10-29T07:02:30.805Z,98191.24
2017-10-29T07:04:57.239Z,98190.83
2017-10-29T07:07:23.776Z,98160.02
2017-10-29T07:09:50.212Z,98176.15
2017-10-29T07:12:16.645Z,98176.91
2017-10-29T07:14:43.017Z,98163.06
2017-10-29T07:17:10.225Z,98166.25
2017-10-29T07:19:36.665Z,98174.75
2017-10-29T07:22:03.093Z,98161.11
2017-10-29T07:24:29.539Z,98143.88
2017-10-29T07:26:55.971Z,98134.64
2017-10-29T07:29:22.330Z,98132.09
2017-10-29T07:31:48.729Z,98136.55
2017-10-29T07:34:16.084Z,98132.30
2017-10-29T07:36:42.528Z,98127.48
2017-10-29T07:39:08.962Z,98121.52
2017-10-29T07:41:35.355Z,98116.70
2017-10-29T07:44:01.827Z,98120.09
2017-10-29T07:46:28.262Z,98109.73
2017-10-29T07:48:54.703Z,98104.64
2017-10-29T07:51:21.844Z,98111.91
2017-10-29T07:53:48.162Z,98100.92
2017-10-29T07:56:14.611Z,98094.23
2017-10-29T07:58:41.052Z,98105.50
2017-10-29T08:01:07.379Z,98095.42
2017-10-29T08:03:33.813Z,98098.59
2017-10-29T08:06:00.257Z,98085.64
2017-10-29T08:08:27.356Z,98089.52
2017-10-29T08:10:53.732Z,98070.80
2017-10-29T08:13:20.176Z,98075.28
2017-10-29T08:15:46.611Z,98071.38
2017-10-29T08:18:13.007Z,98072.92
2017-10-29T08:20:39.471Z,98069.12
2017-10-29T08:23:05.804Z,98063.81
2017-10-29T08:25:33.160Z,98058.05
2017-10-29T08:27:59.595Z,98058.03
2017-10-29T08:30:26.038Z,98044.68
2017-10-29T08:32:52.465Z,98038.77
2017-10-29T08:35:18.912Z,98026.67
2017-10-29T08:37:45.270Z,98024.14
2017-10-29T08:40:11.740Z,98021.88
2017-10-29T08:42:38.906Z,98034.44
2017-10-29T08:45:05.374Z,98008.53
2017-10-29T08:47:31.789Z,98004.88
2017-10-29T08:49:58.223Z,98000.56
2017-10-29T08:52:24.659Z,97986.89
2017-10-29T08:54:51.093Z,97992.59
2017-10-29T08:57:17.529Z,97975.61
2017-10-29T08:59:44.786Z,97973.56
2017-10-29T09:02:11.187Z,97966.27
2017-10-29T09:04:37.659Z,97964.94
2017-10-29T09:07:04.088Z,97954.77
2017-10-29T09:09:30.521Z,97949.48
2017-10-29T09:11:56.965Z,97944.66
2017-10-29T09:14:23.390Z,97940.14
2017-10-29T09:16:50.547Z,97938.16
2017-10-29T09:19:16.997Z,97917.02
2017-10-29T09:21:43.421Z,97911.42
2017-10-29T09:24:09.846Z,97903.53
2017-10-29T09:26:36.224Z,97911.24
2017-10-29T09:29:02.688Z,97896.55
2017-10-29T09:31:29.151Z,97878.16
2017-10-29T09:33:56.239Z,97875.67
2017-10-29T09:36:22.634Z,97879.17
2017-10-29T09:38:49.078Z,97864.88
2017-10-29T09:41:15.512Z,97860.08
2017-10-29T09:43:41.835Z,97848.56
2017-10-29T09:46:08.278Z,97836.82
2017-10-29T09:48:34.672Z,97834.80
2017-10-29T09:51:01.969Z,97836.16
2017-10-29T09:53:28.395Z,97833.61
2017-10-29T09:55:54.829Z,97833.22
2017-10-29T09:58:21.246Z,97829.55
2017-10-29T10:00:47.698Z,97812.18
2017-10-29T10:03:14.142Z,97782.33
2017-10-29T10:05:40.521Z,97796.25
2017-10-29T10:08:07.718Z,97789.88
2017-10-29T10:10:34.161Z,97776.45
2017-10-29T10:13:00.551Z,97778.69
2017-10-29T10:15:26.922Z,97750.64
2017-10-29T10:17:53.361Z,97763.62
2017-10-29T10:20:19.789Z,97730.46
2017-10-29T10:22:46.233Z,97725.09
2017-10-29T10:25:13.274Z,97716.42
2017-10-29T10:27:39.606Z,97716.32
2017-10-29T10:30:05.976Z,97702.23
2017-10-29T10:32:32.378Z,97685.00
2017-10-29T10:34:58.815Z,97669.95
2017-10-29T10:37:25.272Z,97660.66
2017-10-29T10:39:51.677Z,97648.20
2017-10-29T10:42:18.959Z,97634.48
2017-10-29T10:44:45.497Z,97634.56
2017-10-29T10:47:11.845Z,97630.09
2017-10-29T10:49:38.172Z,97614.39
2017-10-29T10:52:04.671Z,97606.25
2017-10-29T10:54:31.082Z,97600.17
2017-10-29T10:56:57.542Z,97565.34
2017-10-29T10:59:24.691Z,97577.30
2017-10-29T11:01:51.127Z,97555.14
2017-10-29T11:04:17.562Z,97570.23
2017-10-29T11:06:43.997Z,97551.77
2017-10-29T11:09:10.430Z,97551.39
2017-10-29T11:11:36.865Z,97541.95
2017-10-29T11:14:03.332Z,97528.92
2017-10-29T11:16:30.553Z,97531.62
2017-10-29T11:18:56.988Z,97524.41
2017-10-29T11:21:23.429Z,97511.72
2017-10-29T11:23:49.865Z,97517.97
2017-10-29T11:26:16.300Z,97517.32
2017-10-29T11:28:42.735Z,97515.22
2017-10-29T11:31:09.162Z,97514.55
2017-10-29T11:33:36.321Z,97516.86
2017-10-29T11:36:02.664Z,97515.42
2017-10-29T11:38:29.079Z,97512.38
2017-10-29T11:40:55.515Z,97506.88
2017-10-29T11:43:21.847Z,97500.80
2017-10-29T11:45:48.281Z,97478.01
2017-10-29T11:48:14.734Z,97475.80
2017-10-29T11:50:41.868Z,97463.17
2017-10-29T11:53:08.273Z,97462.27
2017-10-29T11:55:34.691Z,97457.09
2017-10-29T11:58:01.139Z,97457.98
2017-10-29T12:00:27.607Z,97445.27
2017-10-29T12:02:54.042Z,97446.32
2017-10-29T12:05:20.476Z,97439.08
2017-10-29T12:07:47.738Z,97430.27
2017-10-29T12:10:14.165Z,97427.48
2017-10-29T12:12:40.600Z,97414.12
2017-10-29T12:15:07.038Z,97401.50
2017-10-29T12:17:33.478Z,97395.86
2017-10-29T12:19:59.800Z,97379.41
2017-10-29T12:22:26.245Z,97376.81
2017-10-29T12:24:53.399Z,97373.47
2017-10-29T12:27:19.824Z,97363.20
2017-10-29T12:29:46.258Z,97362.61
2017-10-29T12:32:12.692Z,97340.15
2017-10-29T12:34:39.129Z,97350.60
2017-10-29T12:37:05.562Z,97350.30
2017-10-29T12:39:32.005Z,97339.51
2017-10-29T12:41:59.150Z,97326.62
2017-10-29T12:44:25.583Z,97325.31
2017-10-29T12:46:52.024Z,97311.83
2017-10-29T12:49:18.564Z,97307.94
2017-10-29T12:51:44.989Z,97289.47
2017-10-29T12:54:11.426Z,97271.16
2017-10-29T12:56:37.866Z,97269.68
2017-10-29T12:59:05.074Z,97257.03
2017-10-29T13:01:31.545Z,97252.91
2017-10-29T13:03:58.060Z,97252.45
2017-10-29T13:06:24.539Z,97248.78
2017-10-29T13:08:50.931Z,97247.17
2017-10-29T13:11:17.322Z,97244.17
2017-10-29T13:13:43.721Z,97234.25
2017-10-29T13:16:10.950Z,97242.27
2017-10-29T13:18:37.401Z,97234.39
2017-10-29T13:21:03.844Z,97222.09
2017-10-29T13:23:30.273Z,97223.55
2017-10-29T13:25:56.713Z,97230.85
2017-10-29T13:28:23.151Z,97221.78
2017-10-29T13:30:49.583Z,97213.55
2017-10-29T13:33:16.825Z,97215.03
2017-10-29T13:35:43.268Z,97220.39
2017-10-29T13:38:09.716Z,97212.50
2017-10-29T13:40:36.149Z,97214.24
2017-10-29T13:43:02.521Z,97217.98
2017-10-29T13:45:29.012Z,97210.47
2017-10-29T13:47:55.445Z,97209.00
2017-10-29T13:50:22.698Z,97199.52
2017-10-29T13:52:49.135Z,97199.53
2017-10-29T13:55:15.685Z,97200.52
2017-10-29T13:57:42.105Z,97186.17
2017-10-29T14:00:08.540Z,97183.43
2017-10-29T14:02:34.976Z,97183.55
2017-10-29T14:05:01.419Z,97172.55
2017-10-29T14:07:28.569Z,97158.66
2017-10-29T14:09:54.931Z,97142.45
2017-10-29T14:12:21.407Z,97127.77
2017-10-29T14:14:47.865Z,97119.99
2017-10-29T14:17:14.312Z,97117.32
2017-10-29T14:19:40.743Z,97108.50
2017-10-29T14:22:07.104Z,97097.41
2017-10-29T14:24:34.423Z,97089.12
2017-10-29T14:27:00.886Z,97091.06
2017-10-29T14:29:27.320Z,97087.51
2017-10-29T14:31:53.833Z,97070.08
2017-10-29T14:34:20.265Z,97073.55
2017-10-29T14:36:46.698Z,97068.41
2017-10-29T14:39:13.142Z,97058.04
2017-10-29T14:41:40.295Z,97054.89
2017-10-29T14:44:06.650Z,97050.78
2017-10-29T14:46:33.164Z,97040.09
2017-10-29T14:48:59.589Z,97030.77
2017-10-29T14:51:26.024Z,97037.14
2017-10-29T14:53:52.467Z,97045.39
2017-10-29T14:56:18.921Z,97050.08
2017-10-29T14:58:46.157Z,97043.69
2017-10-29T15:01:12.583Z,97035.86
2017-10-29T15:03:39.024Z,97040.73
2017-10-29T15:06:05.452Z,97017.02
2017-10-29T15:08:31.895Z,97040.74
2017-10-29T15:10:58.321Z,97052.32
2017-10-29T15:13:24.764Z,97057.28
2017-10-29T15:15:51.907Z,97051.16
2017-10-29T15:18:18.343Z,97053.53
2017-10-29T15:20:44.795Z,97042.72
2017-10-29T15:23:11.180Z,97034.67
2017-10-29T15:25:37.648Z,97030.38
2017-10-29T15:28:04.089Z,97024.50
2017-10-29T15:30:30.451Z,97030.41
2017-10-29T15:32:57.702Z,97023.25
2017-10-29T15:35:24.102Z,97021.67
2017-10-29T15:37:50.545Z,97013.13
2017-10-29T15:40:16.943Z,97033.14
2017-10-29T15:42:43.408Z,97024.02
2017-10-29T15:45:09.849Z,97023.56
2017-10-29T15:47:36.244Z,97037.08
2017-10-29T15:50:03.432Z,97035.48
2017-10-29T15:52:29.805Z,97037.79
2017-10-29T15:54:56.324Z,97031.89
2017-10-29T15:57:22.739Z,97030.31
2017-10-29T15:59:49.166Z,97013.61
2017-10-29T16:02:15.601Z,97048.80
2017-10-29T16:04:42.045Z,97050.63
2017-10-29T16:07:09.289Z,97046.19
2017-10-29T16:09:35.724Z,97050.38
2017-10-29T16:12:02.100Z,97055.61
2017-10-29T16:14:28.492Z,97046.41
2017-10-29T16:16:54.825Z,97041.32
2017-10-29T16:19:21.196Z,97046.39
2017-10-29T16:21:47.601Z,97044.44
2017-10-29T16:24:14.852Z,97043.64
2017-10-29T16:26:41.288Z,97047.63
2017-10-29T16:29:07.714Z,97040.45
2017-10-29T16:31:34.147Z,97043.11
2017-10-29T16:34:00.583Z,97040.45
2017-10-29T16:36:27.027Z,97038.45
2017-10-29T16:38:53.462Z,97033.31
2017-10-29T16:41:20.613Z,97047.83
2017-10-29T16:43:47.038Z,97046.83
2017-10-29T16:46:13.473Z,97044.31
2017-10-29T16:48:39.907Z,97053.60
2017-10-29T16:51:06.357Z,97046.33
2017-10-29T16:53:32.888Z,97055.46
2017-10-29T16:55:59.314Z,97058.91
2017-10-29T16:58:26.466Z,97059.72
2017-10-29T17:00:53.005Z,97044.19
2017-10-29T17:03:19.438Z,97057.95
2017-10-29T17:05:45.816Z,97062.95
2017-10-29T17:08:12.207Z,97071.47
2017-10-29T17:10:38.716Z,97081.05
2017-10-29T17:13:05.109Z,97083.70
2017-10-29T17:15:32.328Z,97099.97
2017-10-29T17:17:58.660Z,97097.88
2017-10-29T17:20:25.095Z,97100.53
2017-10-29T17:22:51.530Z,97103.64
2017-10-29T17:25:17.975Z,97103.16
2017-10-29T17:27:44.408Z,97102.81
2017-10-29T17:30:10.836Z,97110.73
2017-10-29T17:32:38.114Z,97116.93
2017-10-29T17:35:04.534Z,97113.44
2017-10-29T17:37:30.965Z,97125.04
2017-10-29T17:39:57.414Z,97134.04
2017-10-29T17:42:23.765Z,97141.73
2017-10-29T17:44:50.160Z,97153.80
2017-10-29T17:47:16.616Z,97159.89
2017-10-29T17:49:43.746Z,97174.68
2017-10-29T17:52:10.118Z,97179.20
2017-10-29T17:54:36.602Z,97185.67
2017-10-29T17:57:03.054Z,97195.36
2017-10-29T17:59:29.484Z,97199.72
2017-10-29T18:01:55.818Z,97226.77
2017-10-29T18:04:22.150Z,97229.52
2017-10-29T18:06:49.507Z,97253.67
2017-10-29T18:09:15.838Z,97264.19
2017-10-29T18:11:42.286Z,97272.77
2017-10-29T18:14:08.718Z,97297.58
2017-10-29T18:16:35.116Z,97284.52
2017-10-29T18:19:01.579Z,97305.77
2017-10-29T18:21:28.014Z,97303.55
2017-10-29T18:23:55.131Z,97301.89
2017-10-29T18:26:21.613Z,97323.64
2017-10-29T18:28:47.969Z,97317.02
2017-10-29T18:31:14.441Z,97341.28
2017-10-29T18:33:40.850Z,97351.74
2017-10-29T18:36:07.336Z,97371.31
2017-10-29T18:38:33.771Z,97379.42
2017-10-29T18:41:00.923Z,97393.28
2017-10-29T18:43:27.329Z,97406.20
2017-10-29T18:45:53.801Z,97408.44
2017-10-29T18:48:20.226Z,97422.72
2017-10-29T18:50:46.653Z,97418.70
2017-10-29T18:53:13.031Z,97421.95
2017-10-29T18:55:39.427Z,97454.52
2017-10-29T18:58:06.683Z,97485.25
2017-10-29T19:00:33.137Z,97568.64
2017-10-29T19:02:59.560Z,97551.52
2017-10-29T19:05:25.955Z,97523.02
2017-10-29T19:07:52.399Z,97600.21
2017-10-29T19:10:18.861Z,97594.94
2017-10-29T19:12:45.290Z,97607.82
2017-10-29T19:15:12.425Z,97607.19
2017-10-29T19:17:38.877Z,97612.41
2017-10-29T19:20:05.318Z,97614.35
2017-10-29T19:22:31.747Z,97605.83
2017-10-29T19:24:58.180Z,97627.14
2017-10-29T19:27:24.615Z,97633.56
2017-10-29T19:29:50.964Z,97615.77
2017-10-29T19:32:18.295Z,97578.67
2017-10-29T19:34:44.746Z,97565.47
2017-10-29T19:37:11.284Z,97576.99
2017-10-29T19:39:37.711Z,97622.27
2017-10-29T19:42:04.147Z,97628.83
2017-10-29T19:44:30.514Z,97627.71
2017-10-29T19:46:57.045Z,97617.92
2017-10-29T19:49:24.065Z,97618.25
2017-10-29T19:51:50.601Z,97626.71
2017-10-29T19:54:17.035Z,97655.63
2017-10-29T19:56:43.471Z,97670.53
2017-10-29T19:59:09.839Z,97670.73
2017-10-29T20:01:36.179Z,97681.70
2017-10-29T20:04:02.570Z,97685.75
2017-10-29T20:06:29.823Z,97702.37
2017-10-29T20:08:56.258Z,97685.09
2017-10-29T20:11:22.702Z,97686.93
2017-10-29T20:13:49.138Z,97672.16
2017-10-29T20:16:15.572Z,97672.86
2017-10-29T20:18:41.998Z,97644.81
2017-10-29T20:21:08.453Z,97636.09
2017-10-29T20:23:35.459Z,97642.18
2017-10-29T20:26:01.898Z,97634.67
2017-10-29T20:28:28.351Z,97645.11
2017-10-29T20:30:54.786Z,97656.02
2017-10-29T20:33:21.162Z,97678.30
2017-10-29T20:35:47.658Z,97668.27
2017-10-29T20:38:14.089Z,97653.90
2017-10-29T20:40:41.327Z,97662.81
2017-10-29T20:43:07.715Z,97659.03
2017-10-29T20:45:34.188Z,97661.47
2017-10-29T20:48:00.650Z,97666.20
2017-10-29T20:50:27.083Z,97681.50
2017-10-29T20:52:53.518Z,97678.25
2017-10-29T20:55:19.830Z,97665.94
2017-10-29T20:57:47.175Z,97679.06
2017-10-29T21:00:13.650Z,97692.08
2017-10-29T21:02:40.086Z,97687.41
2017-10-29T21:05:06.512Z,97672.63
2017-10-29T21:07:32.945Z,97690.02
2017-10-29T21:09:59.381Z,97695.31
2017-10-29T21:12:25.816Z,97690.88
2017-10-29T21:14:52.965Z,97680.05
2017-10-29T21:17:19.409Z,97650.83
2017-10-29T21:19:45.836Z,97642.61
2017-10-29T21:22:12.270Z,97611.98
2017-10-29T21:24:38.716Z,97616.32
2017-10-29T21:27:05.149Z,97603.69
2017-10-29T21:29:31.573Z,97612.78
2017-10-29T21:31:58.613Z,97601.26
2017-10-29T21:34:25.066Z,97612.00
2017-10-29T21:36:51.493Z,97618.62
2017-10-29T21:39:17.825Z,97609.92
2017-10-29T21:41:44.196Z,97612.77
2017-10-29T21:44:10.703Z,97595.89
2017-10-29T21:46:37.139Z,97600.86
2017-10-29T21:49:04.289Z,97591.08
2017-10-29T21:51:30.725Z,97581.18
2017-10-29T21:53:57.151Z,97588.06
2017-10-29T21:56:23.591Z,97587.66
2017-10-29T21:58:50.019Z,97595.09
2017-10-29T22:01:16.422Z,97613.98
2017-10-29T22:03:42.900Z,97625.13
2017-10-29T22:06:10.043Z,97616.75
2017-10-29T22:08:36.372Z,97621.64
2017-10-29T22:11:02.704Z,97618.41
2017-10-29T22:13:29.038Z,97635.08
2017-10-29T22:15:55.474Z,97617.86
2017-10-29T22:18:21.848Z,97607.02
2017-10-29T22:20:48.183Z,97631.22
2017-10-29T22:23:15.390Z,97624.69
2017-10-29T22:25:41.795Z,97622.61
2017-10-29T22:28:08.269Z,97614.47
2017-10-29T22:30:34.664Z,97602.38
2017-10-29T22:33:01.139Z,97609.88
2017-10-29T22:35:27.573Z,97607.67
2017-10-29T22:37:53.999Z,97605.32
2017-10-29T22:40:21.187Z,97600.30
2017-10-29T22:42:47.585Z,97600.38
2017-10-29T22:45:14.022Z,97606.71
2017-10-29T22:47:40.457Z,97614.00
2017-10-29T22:50:06.790Z,97602.05
2017-10-29T22:52:33.155Z,97611.45
2017-10-29T22:54:59.559Z,97598.86
2017-10-29T22:57:26.775Z,97612.08
2017-10-29T22:59:53.179Z,97612.41
2017-10-29T23:02:19.596Z,97626.62
2017-10-29T23:04:46.011Z,97616.58
2017-10-29T23:07:12.446Z,97618.47
2017-10-29T23:09:38.888Z,97610.63
2017-10-29T23:12:05.314Z,97620.12
2017-10-29T23:14:32.577Z,97619.09
2017-10-29T23:16:59.002Z,97625.97
2017-10-29T23:19:25.446Z,97639.16
2017-10-29T23:21:51.872Z,97625.72
2017-10-29T23:24:18.334Z,97625.80
2017-10-29T23:26:44.675Z,97645.11
2017-10-29T23:29:11.074Z,97647.55
2017-10-29T23:31:38.337Z,97654.66
2017-10-29T23:34:04.695Z,97657.05
2017-10-29T23:36:31.163Z,97653.39
2017-10-29T23:38:57.632Z,97659.31
2017-10-29T23:41:24.071Z,97661.71
2017-10-29T23:43:50.508Z,97689.88
2017-10-29T23:46:16.911Z,97674.22
2017-10-29T23:48:43.367Z,97686.92
2017-10-29T23:51:09.813Z,97693.60
2017-10-29T23:53:36.248Z,97700.31
2017-10-29T23:56:02.678Z,97704.35
2017-10-29T23:58:29.058Z,97725.94
